Time,TemperatureF,DewpointF,PressureIn,WindDirection,WindDirectionDegrees,WindSpeedMPH,WindSpeedGustMPH,Humidity,HourlyPrecipIn,Conditions,Clouds,dailyrainin,SoftwareType,DateUTC
2013-07-28 00:02:00,53.0,48.0,29.91,SW,229,4.0,8.0,84,0.00,,,0.00,,2013-07-28 05:02:00,
2013-07-28 00:12:00,53.0,48.0,29.91,West,265,2.0,7.0,82,0.00,,,0.00,,2013-07-28 05:12:00,
2013-07-28 00:22:00,53.0,48.0,29.91,West,262,3.0,7.0,82,0.00,,,0.00,,2013-07-28 05:22:00,
2013-07-28 00:32:00,53.0,48.0,29.91,West,262,3.0,7.0,82,0.00,,,0.00,,2013-07-28 05:32:00,
2013-07-28 00:43:00,52.0,47.0,29.90,WNW,283,2.0,7.0,83,0.00,,,0.00,,2013-07-28 05:43:00,
2013-07-28 00:52:00,52.0,47.0,29.90,West,267,4.0,8.0,83,0.00,,,0.00,,2013-07-28 05:52:00,
2013-07-28 01:02:00,52.0,47.0,29.90,West,267,4.0,8.0,83,0.00,,,0.00,,2013-07-28 06:02:00,
2013-07-28 01:12:00,53.0,47.0,29.90,West,276,5.0,10.0,81,0.00,,,0.00,,2013-07-28 06:12:00,
2013-07-28 01:22:00,53.0,47.0,29.89,NW,304,3.0,8.0,81,0.00,,,0.00,,2013-07-28 06:22:00,
2013-07-28 01:32:00,53.0,47.0,29.89,NW,304,3.0,8.0,81,0.00,,,0.00,,2013-07-28 06:32:00,
2013-07-28 01:43:00,53.0,47.0,29.89,WSW,250,4.0,8.0,81,0.00,,,0.00,,2013-07-28 06:43:00,
2013-07-28 01:52:00,53.0,47.0,29.89,West,270,4.0,7.0,81,0.00,,,0.00,,2013-07-28 06:52:00,
2013-07-28 02:02:00,53.0,47.0,29.89,West,270,4.0,7.0,81,0.00,,,0.00,,2013-07-28 07:02:00,
2013-07-28 02:12:00,53.0,48.0,29.88,WNW,294,3.0,8.0,82,0.00,,,0.00,,2013-07-28 07:12:00,
2013-07-28 02:22:00,53.0,48.0,29.89,NW,308,3.0,8.0,82,0.00,,,0.00,,2013-07-28 07:22:00,
2013-07-28 02:32:00,53.0,48.0,29.89,NW,308,3.0,8.0,82,0.00,,,0.00,,2013-07-28 07:32:00,
2013-07-28 02:43:00,53.0,48.0,29.88,WNW,288,3.0,7.0,82,0.00,,,0.00,,2013-07-28 07:43:00,
2013-07-28 02:53:00,53.0,48.0,29.88,West,267,4.0,8.0,82,0.00,,,0.00,,2013-07-28 07:53:00,
2013-07-28 03:02:00,53.0,48.0,29.88,West,267,4.0,8.0,82,0.00,,,0.00,,2013-07-28 08:02:00,
2013-07-28 03:12:00,53.0,47.0,29.88,WNW,300,3.0,7.0,81,0.00,,,0.00,,2013-07-28 08:12:00,
2013-07-28 03:22:00,53.0,48.0,29.87,West,263,2.0,7.0,82,0.00,,,0.00,,2013-07-28 08:22:00,
2013-07-28 03:33:00,53.0,48.0,29.87,West,263,2.0,7.0,82,0.00,,,0.00,,2013-07-28 08:33:00,
2013-07-28 03:42:00,53.0,48.0,29.87,West,264,4.0,8.0,82,0.00,,,0.00,,2013-07-28 08:42:00,
2013-07-28 03:53:00,53.0,48.0,29.87,NW,306,5.0,9.0,82,0.00,,,0.00,,2013-07-28 08:53:00,
2013-07-28 04:02:00,53.0,48.0,29.87,NW,306,5.0,9.0,82,0.00,,,0.00,,2013-07-28 09:02:00,
2013-07-28 04:12:00,54.0,49.0,29.87,WSW,254,4.0,9.0,82,0.00,,,0.00,,2013-07-28 09:12:00,
2013-07-28 04:22:00,54.0,49.0,29.87,WNW,296,4.0,9.0,82,0.00,,,0.00,,2013-07-28 09:22:00,
2013-07-28 04:32:00,54.0,49.0,29.87,WNW,296,4.0,9.0,82,0.00,,,0.00,,2013-07-28 09:32:00,
2013-07-28 04:43:00,54.0,48.0,29.87,SW,236,3.0,8.0,81,0.00,,,0.00,,2013-07-28 09:43:00,
2013-07-28 04:53:00,54.0,49.0,29.88,WSW,254,4.0,9.0,83,0.00,,,0.00,,2013-07-28 09:53:00,
2013-07-28 05:02:00,54.0,49.0,29.88,WSW,254,4.0,9.0,83,0.00,,,0.00,,2013-07-28 10:02:00,
2013-07-28 05:12:00,54.0,50.0,29.88,West,271,3.0,7.0,85,0.00,,,0.00,,2013-07-28 10:12:00,
2013-07-28 05:22:00,53.0,49.0,29.88,West,262,3.0,10.0,87,0.01,,,0.01,,2013-07-28 10:22:00,
2013-07-28 05:33:00,53.0,49.0,29.88,West,262,3.0,10.0,87,0.01,,,0.01,,2013-07-28 10:33:00,
2013-07-28 05:42:00,53.0,50.0,29.88,West,279,3.0,8.0,88,0.03,,,0.03,,2013-07-28 10:42:00,
2013-07-28 05:52:00,53.0,50.0,29.88,West,279,3.0,8.0,88,0.03,,,0.03,,2013-07-28 10:52:00,
2013-07-28 06:12:00,52.0,49.0,29.89,WNW,285,0.0,3.0,91,0.05,,,0.05,,2013-07-28 11:12:00,
2013-07-28 06:22:00,52.0,50.0,29.89,WNW,287,3.0,7.0,92,0.05,,,0.07,,2013-07-28 11:22:00,
2013-07-28 06:33:00,52.0,50.0,29.89,WNW,287,3.0,7.0,92,0.05,,,0.07,,2013-07-28 11:33:00,
2013-07-28 06:43:00,53.0,51.0,29.89,WNW,298,0.0,7.0,92,0.04,,,0.07,,2013-07-28 11:43:00,
2013-07-28 07:02:00,53.0,51.0,29.89,NNW,330,0.0,4.0,93,0.03,,,0.07,,2013-07-28 12:02:00,
2013-07-28 07:12:00,53.0,51.0,29.89,West,259,0.0,1.0,93,0.02,,,0.07,,2013-07-28 12:12:00,
2013-07-28 07:22:00,53.0,51.0,29.90,West,261,0.0,4.0,94,0.00,,,0.07,,2013-07-28 12:22:00,
2013-07-28 07:33:00,53.0,51.0,29.90,West,261,0.0,4.0,94,0.00,,,0.07,,2013-07-28 12:33:00,
2013-07-28 07:43:00,54.0,52.0,29.90,West,281,1.0,4.0,93,0.00,,,0.07,,2013-07-28 12:43:00,
2013-07-28 07:53:00,54.0,52.0,29.91,WNW,291,0.0,2.0,93,0.00,,,0.07,,2013-07-28 12:53:00,
2013-07-28 08:02:00,54.0,52.0,29.91,WNW,291,0.0,2.0,93,0.00,,,0.07,,2013-07-28 13:02:00,
2013-07-28 08:12:00,55.0,53.0,29.91,West,267,1.0,6.0,93,0.00,,,0.07,,2013-07-28 13:12:00,
2013-07-28 08:22:00,55.0,53.0,29.91,NW,324,1.0,6.0,92,0.00,,,0.07,,2013-07-28 13:22:00,
2013-07-28 08:32:00,55.0,53.0,29.91,NW,324,1.0,6.0,92,0.00,,,0.07,,2013-07-28 13:32:00,
2013-07-28 08:43:00,56.0,52.0,29.91,West,262,2.0,6.0,88,0.00,,,0.07,,2013-07-28 13:43:00,
2013-07-28 08:52:00,57.0,53.0,29.91,West,268,2.0,8.0,87,0.00,,,0.07,,2013-07-28 13:52:00,
2013-07-28 09:02:00,57.0,53.0,29.91,West,268,2.0,8.0,87,0.00,,,0.07,,2013-07-28 14:02:00,
2013-07-28 09:12:00,57.0,52.0,29.91,WSW,254,3.0,11.0,83,0.00,,,0.07,,2013-07-28 14:12:00,
2013-07-28 09:23:00,58.0,52.0,29.91,WSW,250,3.0,9.0,81,0.00,,,0.07,,2013-07-28 14:23:00,
2013-07-28 09:33:00,58.0,52.0,29.91,WSW,250,3.0,9.0,81,0.00,,,0.07,,2013-07-28 14:33:00,
2013-07-28 09:43:00,58.0,53.0,29.91,WSW,250,3.0,7.0,82,0.00,,,0.07,,2013-07-28 14:43:00,
2013-07-28 09:53:00,59.0,50.0,29.91,West,269,2.0,10.0,73,0.00,,,0.07,,2013-07-28 14:53:00,
2013-07-28 10:03:00,59.0,50.0,29.91,West,269,2.0,10.0,73,0.00,,,0.07,,2013-07-28 15:03:00,
2013-07-28 10:13:00,58.0,51.0,29.92,SW,221,1.0,7.0,77,0.00,,,0.07,,2013-07-28 15:13:00,
2013-07-28 10:22:00,59.0,51.0,29.92,North,360,2.0,10.0,75,0.00,,,0.07,,2013-07-28 15:22:00,
2013-07-28 10:32:00,59.0,51.0,29.92,North,360,2.0,10.0,75,0.00,,,0.07,,2013-07-28 15:32:00,
2013-07-28 10:43:00,60.0,51.0,29.92,West,264,2.0,7.0,71,0.00,,,0.07,,2013-07-28 15:43:00,
2013-07-28 10:53:00,60.0,51.0,29.92,NNW,329,4.0,10.0,72,0.00,,,0.07,,2013-07-28 15:53:00,
2013-07-28 11:02:00,60.0,51.0,29.92,NNW,329,4.0,10.0,72,0.00,,,0.07,,2013-07-28 16:02:00,
2013-07-28 11:12:00,61.0,52.0,29.93,NW,326,0.0,5.0,71,0.00,,,0.07,,2013-07-28 16:12:00,
2013-07-28 11:22:00,60.0,51.0,29.93,West,271,5.0,14.0,72,0.00,,,0.07,,2013-07-28 16:22:00,
2013-07-28 11:33:00,60.0,51.0,29.93,West,271,5.0,14.0,72,0.00,,,0.07,,2013-07-28 16:33:00,
2013-07-28 11:43:00,61.0,50.0,29.93,WNW,303,2.0,11.0,68,0.00,,,0.07,,2013-07-28 16:43:00,
2013-07-28 12:02:00,61.0,50.0,29.93,South,187,3.0,8.0,68,0.00,,,0.07,,2013-07-28 17:02:00,
2013-07-28 12:12:00,62.0,51.0,29.93,NNW,346,4.0,11.0,67,0.00,,,0.07,,2013-07-28 17:12:00,
2013-07-28 12:23:00,62.0,50.0,29.93,WSW,242,4.0,12.0,64,0.00,,,0.07,,2013-07-28 17:23:00,
2013-07-28 12:32:00,62.0,50.0,29.93,WSW,242,4.0,12.0,64,0.00,,,0.07,,2013-07-28 17:32:00,
2013-07-28 12:43:00,63.0,51.0,29.94,NW,317,2.0,10.0,64,0.00,,,0.07,,2013-07-28 17:43:00,
2013-07-28 13:03:00,63.0,51.0,29.94,West,260,2.0,8.0,65,0.00,,,0.07,,2013-07-28 18:03:00,
2013-07-28 13:12:00,63.0,50.0,29.94,NNW,345,3.0,8.0,63,0.00,,,0.07,,2013-07-28 18:12:00,
2013-07-28 13:22:00,64.0,50.0,29.94,WSW,250,3.0,9.0,61,0.00,,,0.07,,2013-07-28 18:22:00,
2013-07-28 13:33:00,64.0,50.0,29.94,WSW,250,3.0,9.0,61,0.00,,,0.07,,2013-07-28 18:33:00,
2013-07-28 13:43:00,65.0,51.0,29.95,WSW,257,1.0,8.0,61,0.00,,,0.07,,2013-07-28 18:43:00,
2013-07-28 13:52:00,65.0,51.0,29.95,NNE,26,2.0,9.0,61,0.00,,,0.07,,2013-07-28 18:52:00,
2013-07-28 14:02:00,65.0,51.0,29.95,NNE,26,2.0,9.0,61,0.00,,,0.07,,2013-07-28 19:02:00,
2013-07-28 14:12:00,66.0,53.0,29.95,SSW,211,3.0,8.0,62,0.00,,,0.07,,2013-07-28 19:12:00,
2013-07-28 14:22:00,66.0,51.0,29.95,NW,325,3.0,11.0,59,0.00,,,0.07,,2013-07-28 19:22:00,
2013-07-28 14:33:00,66.0,51.0,29.95,NW,325,3.0,11.0,59,0.00,,,0.07,,2013-07-28 19:33:00,
2013-07-28 14:43:00,65.0,51.0,29.95,NNE,33,1.0,11.0,60,0.00,,,0.07,,2013-07-28 19:43:00,
2013-07-28 14:52:00,66.0,51.0,29.95,West,279,2.0,8.0,59,0.00,,,0.07,,2013-07-28 19:52:00,
2013-07-28 15:02:00,66.0,51.0,29.95,West,279,2.0,8.0,59,0.00,,,0.07,,2013-07-28 20:02:00,
2013-07-28 15:12:00,66.0,51.0,29.95,NW,309,1.0,12.0,59,0.00,,,0.07,,2013-07-28 20:12:00,
2013-07-28 15:23:00,66.0,52.0,29.95,SW,217,2.0,7.0,60,0.00,,,0.07,,2013-07-28 20:23:00,
2013-07-28 15:33:00,66.0,52.0,29.95,SW,217,2.0,7.0,60,0.00,,,0.07,,2013-07-28 20:33:00,
2013-07-28 15:43:00,66.0,50.0,29.95,WNW,298,4.0,10.0,56,0.00,,,0.07,,2013-07-28 20:43:00,
2013-07-28 15:52:00,67.0,53.0,29.96,NW,321,2.0,9.0,61,0.00,,,0.07,,2013-07-28 20:52:00,
2013-07-28 16:03:00,67.0,53.0,29.96,NW,321,2.0,9.0,61,0.00,,,0.07,,2013-07-28 21:03:00,
2013-07-28 16:13:00,68.0,53.0,29.96,NNE,32,2.0,7.0,59,0.00,,,0.07,,2013-07-28 21:13:00,
2013-07-28 16:22:00,67.0,51.0,29.96,West,278,2.0,10.0,57,0.00,,,0.07,,2013-07-28 21:22:00,
2013-07-28 16:33:00,67.0,51.0,29.96,West,278,2.0,10.0,57,0.00,,,0.07,,2013-07-28 21:33:00,
2013-07-28 16:44:00,68.0,51.0,29.96,West,277,2.0,8.0,55,0.00,,,0.07,,2013-07-28 21:44:00,
2013-07-28 16:52:00,68.0,52.0,29.96,NNW,336,2.0,7.0,57,0.00,,,0.07,,2013-07-28 21:52:00,
2013-07-28 17:02:00,68.0,52.0,29.96,NNW,336,2.0,7.0,57,0.00,,,0.07,,2013-07-28 22:02:00,
2013-07-28 17:12:00,69.0,51.0,29.96,WNW,300,3.0,7.0,53,0.00,,,0.07,,2013-07-28 22:12:00,
2013-07-28 17:22:00,69.0,52.0,29.96,WNW,293,1.0,10.0,54,0.00,,,0.07,,2013-07-28 22:22:00,
2013-07-28 17:32:00,69.0,52.0,29.96,WNW,293,1.0,10.0,54,0.00,,,0.07,,2013-07-28 22:32:00,
2013-07-28 17:43:00,70.0,53.0,29.96,NE,53,1.0,8.0,54,0.00,,,0.07,,2013-07-28 22:43:00,
2013-07-28 17:52:00,70.0,53.0,29.96,NW,309,0.0,5.0,54,0.00,,,0.07,,2013-07-28 22:52:00,
2013-07-28 18:03:00,70.0,53.0,29.96,NW,309,0.0,5.0,54,0.00,,,0.07,,2013-07-28 23:03:00,
2013-07-28 18:12:00,67.0,50.0,29.96,NW,318,2.0,12.0,55,0.00,,,0.07,,2013-07-28 23:12:00,
2013-07-28 18:22:00,67.0,50.0,29.96,WNW,298,6.0,10.0,55,0.00,,,0.07,,2013-07-28 23:22:00,
2013-07-28 18:32:00,67.0,50.0,29.96,WNW,298,6.0,10.0,55,0.00,,,0.07,,2013-07-28 23:32:00,
2013-07-28 18:43:00,67.0,52.0,29.97,NNE,26,2.0,7.0,58,0.00,,,0.07,,2013-07-28 23:43:00,
2013-07-28 18:53:00,67.0,51.0,29.97,NW,309,1.0,10.0,56,0.00,,,0.07,,2013-07-28 23:53:00,
2013-07-28 19:03:00,67.0,51.0,29.97,NW,309,1.0,10.0,56,0.00,,,0.07,,2013-07-29 00:03:00,
2013-07-28 19:22:00,66.0,52.0,29.98,NW,319,1.0,6.0,60,0.00,,,0.07,,2013-07-29 00:22:00,
2013-07-28 19:32:00,66.0,52.0,29.98,NW,319,1.0,6.0,60,0.00,,,0.07,,2013-07-29 00:32:00,
2013-07-28 19:43:00,64.0,51.0,29.98,West,265,1.0,4.0,63,0.00,,,0.07,,2013-07-29 00:43:00,
2013-07-28 19:52:00,64.0,52.0,29.98,West,270,0.0,2.0,66,0.00,,,0.07,,2013-07-29 00:52:00,
2013-07-28 20:02:00,64.0,52.0,29.98,West,270,0.0,2.0,66,0.00,,,0.07,,2013-07-29 01:02:00,
2013-07-28 20:14:00,64.0,53.0,29.98,West,270,0.0,3.0,67,0.00,,,0.07,,2013-07-29 01:14:00,
2013-07-28 20:27:00,64.0,53.0,29.98,West,270,0.0,3.0,67,0.00,,,0.07,,2013-07-29 01:27:00,
2013-07-28 20:44:00,62.0,52.0,29.98,West,277,0.0,5.0,71,0.00,,,0.07,,2013-07-29 01:44:00,
2013-07-28 21:05:00,62.0,53.0,29.98,West,272,2.0,5.0,72,0.00,,,0.07,,2013-07-29 02:05:00,
2013-07-28 21:14:00,61.0,52.0,29.98,West,269,3.0,6.0,71,0.00,,,0.07,,2013-07-29 02:14:00,
2013-07-28 21:25:00,61.0,52.0,29.99,West,274,1.0,5.0,71,0.00,,,0.07,,2013-07-29 02:25:00,
2013-07-28 21:36:00,61.0,52.0,29.99,West,274,1.0,5.0,71,0.00,,,0.07,,2013-07-29 02:36:00,
2013-07-28 21:46:00,61.0,52.0,29.99,West,269,2.0,6.0,71,0.00,,,0.07,,2013-07-29 02:46:00,
2013-07-28 22:03:00,60.0,52.0,30.00,West,277,2.0,5.0,74,0.00,,,0.07,,2013-07-29 03:03:00,
2013-07-28 22:24:00,59.0,51.0,30.01,West,270,2.0,8.0,75,0.00,,,0.07,,2013-07-29 03:24:00,
2013-07-28 22:36:00,59.0,51.0,30.01,West,270,2.0,8.0,75,0.00,,,0.07,,2013-07-29 03:36:00,
2013-07-28 22:48:00,58.0,51.0,30.01,West,260,1.0,3.0,77,0.00,,,0.07,,2013-07-29 03:48:00,
2013-07-28 22:56:00,58.0,51.0,30.02,West,274,2.0,11.0,77,0.00,,,0.07,,2013-07-29 03:56:00,
2013-07-28 23:02:00,58.0,51.0,30.02,West,274,2.0,11.0,77,0.00,,,0.07,,2013-07-29 04:02:00,
2013-07-28 23:12:00,58.0,51.0,30.02,West,272,3.0,5.0,77,0.00,,,0.07,,2013-07-29 04:12:00,
2013-07-28 23:32:00,58.0,51.0,30.02,WNW,284,2.0,5.0,77,0.00,,,0.07,,2013-07-29 04:32:00,
2013-07-28 23:43:00,58.0,51.0,30.01,WSW,251,1.0,5.0,78,0.00,,,0.07,,2013-07-29 04:43:00,